Main page
METAR-TAF:

METAR-TAF

Airports :

Gomel, Belarus

Gomel Airport

latitude: 52-31-36N, longitude: 031-01-06E, elevation: 144 m

Current weather observation

The report was made 17 minutes ago, at 09:30 UTC
Wind 14 kt from the Southeast with gusts up to 21 kt
Temperature 29°C
Humidity 35%
Pressure 1020 hPa
Visibility 10 km or more
no clouds below 1500 m and no cumulonimbus

METAR: UMGG 200930Z 13007G11MPS CAVOK 29/12 Q1020 R10/CLRD// NOSIG

Time: 12:47 (09:47 UTC)

Forecast

The report was made 4 hours and 47 minutes ago, at 05:00 UTC
Forecast valid from 20 at 06 UTC to 21 at 06 UTC
Wind 12 kt from the Southeast
Visibility 10 km or more
Scattered clouds at a height of 3000 ft
Temporary
from 20 at 06 UTC to 20 at 16 UTC
Wind 12 kt from the South/Southeast with gusts up to 21 kt
Temporary
from 20 at 21 UTC to 21 at 06 UTC
Visibility: 2000 m
Scattered clouds at a height of 500 ft
mist

TAF: UMGG 200500Z 2006/2106 13006MPS 9999 SCT030 TX32/2012Z TN17/2102Z TEMPO 2006/2016 15006G11MPS TEMPO 2021/2106 2000 BR SCT005

Weather observations and forecasts of more than 4000 airports (METAR and TAF reports).

The available stations are represented by yellow and red dots on the map.

Hover mouse over dot to see the name of the station.

Then click to see weather observations and forecasts.

To change the map : click on the green buttons with a black cross to zoom in, on the green button with a dash to zoom out, or on the green arrows for adjacent maps.


METAR-TAF: